Thursday, May 28, 2015, 3:50 PM EDT

KLKU, Louisa, Louisa County Airport/freeman Field

Location: Louisa, VA, United States Lat: 38.01
Local Time: 3:50 PM EDT (19:50 GMT) Lon: -77.97
Time Zone: US/Eastern Elev: 492 ft

Show me the last for .
Show Decoded

2015-05-28 15:35 METAR KLKU 281935Z AUTO 08004KT 10SM SCT080 31/19 A3017 RMK AO2 =
2015-05-28 15:15 METAR KLKU 281915Z AUTO 11005KT 10SM CLR 30/19 A3018 RMK AO2 =
2015-05-28 14:55 METAR KLKU 281855Z AUTO 09004KT 10SM CLR 31/19 A3018 RMK AO2 =
2015-05-28 14:35 METAR KLKU 281835Z AUTO 11004KT 10SM SCT048 30/19 A3018 RMK AO2 =
2015-05-28 14:15 METAR KLKU 281815Z AUTO 06005KT 10SM SCT046 SCT050 BKN065 30/19 A3019 RMK AO2 =
2015-05-28 13:55 METAR KLKU 281755Z AUTO 06004KT 10SM SCT047 SCT050 BKN065 30/19 A3019 RMK AO2 =
2015-05-28 13:35 METAR KLKU 281735Z AUTO 06004KT 10SM SCT043 SCT050 30/19 A3019 RMK AO2 =
2015-05-28 13:15 METAR KLKU 281715Z AUTO 11003KT 10SM SCT075 30/20 A3020 RMK AO2 =
2015-05-28 12:55 METAR KLKU 281655Z AUTO 10006KT 5SM HZ SCT040 BKN075 29/19 A3020 RMK AO2 =
2015-05-28 12:35 METAR KLKU 281635Z AUTO 12005KT 10SM SCT040 SCT075 30/19 A3020 RMK AO2 =
2015-05-28 12:15 METAR KLKU 281615Z AUTO 07004KT 10SM SCT040 29/19 A3020 RMK AO2 =
2015-05-28 11:55 METAR KLKU 281555Z AUTO 13003KT 10SM SCT038 BKN070 29/19 A3021 RMK AO2 =
2015-05-28 11:35 METAR KLKU 281535Z AUTO 09004KT 10SM BKN070 29/19 A3020 RMK AO2 =
2015-05-28 11:15 METAR KLKU 281515Z AUTO 12005KT 10SM SCT070 28/19 A3020 RMK AO2 =
2015-05-28 10:55 METAR KLKU 281455Z AUTO 00000KT 10SM CLR 28/19 A3020 RMK AO2 =
2015-05-28 10:35 METAR KLKU 281435Z AUTO 00000KT 10SM CLR 28/20 A3020 RMK AO2 =
2015-05-28 10:15 METAR KLKU 281415Z AUTO 00000KT 10SM CLR 27/20 A3020 RMK AO2 =
2015-05-28 09:55 METAR KLKU 281355Z AUTO 00000KT 10SM CLR 26/21 A3020 RMK AO2 =
2015-05-28 09:35 METAR KLKU 281335Z AUTO 27003KT 10SM CLR 26/20 A3020 RMK AO2 =
2015-05-28 09:15 METAR KLKU 281315Z AUTO 25003KT 10SM CLR 24/20 A3020 RMK AO2 =
2015-05-28 08:55 METAR KLKU 281255Z AUTO 23003KT 10SM CLR 24/20 A3020 RMK AO2 =
2015-05-28 08:35 METAR KLKU 281235Z AUTO 00000KT 10SM CLR 23/19 A3020 RMK AO2 =
2015-05-28 08:15 METAR KLKU 281215Z AUTO 17003KT 10SM CLR 22/19 A3019 RMK AO2 =
2015-05-28 07:55 METAR KLKU 281155Z AUTO 20003KT 10SM CLR 21/19 A3019 RMK AO2 =
2015-05-28 07:35 METAR KLKU 281135Z AUTO 19003KT 10SM CLR 21/19 A3018 RMK AO2 =
2015-05-28 07:15 METAR KLKU 281115Z AUTO 00000KT 10SM CLR 20/19 A3018 RMK AO2 =
2015-05-28 06:55 METAR KLKU 281055Z AUTO 16003KT 10SM CLR 20/18 A3017 RMK AO2 =
2015-05-28 06:35 METAR KLKU 281035Z AUTO 00000KT 10SM CLR 19/18 A3016 RMK AO2 =
2015-05-28 06:15 METAR KLKU 281015Z AUTO 00000KT 10SM CLR 19/18 A3016 RMK AO2 =
2015-05-28 05:55 METAR KLKU 280955Z AUTO 00000KT 10SM CLR 20/18 A3015 RMK AO2 =
2015-05-28 05:35 METAR KLKU 280935Z AUTO 00000KT 10SM CLR 20/18 A3014 RMK AO2 =
2015-05-28 05:15 METAR KLKU 280915Z AUTO 00000KT 10SM CLR 20/18 A3014 RMK AO2 =
2015-05-28 04:55 METAR KLKU 280855Z AUTO 23004KT 10SM CLR 21/18 A3014 RMK AO2 =
2015-05-28 04:35 METAR KLKU 280835Z AUTO 25005KT 10SM CLR 21/18 A3014 RMK AO2 =
2015-05-28 04:15 METAR KLKU 280815Z AUTO 22004KT 10SM CLR 21/18 A3013 RMK AO2 =
2015-05-28 03:55 METAR KLKU 280755Z AUTO 20003KT 10SM CLR 21/18 A3013 RMK AO2 =
2015-05-28 03:35 METAR KLKU 280735Z AUTO 22003KT 10SM CLR 21/18 A3014 RMK AO2 =
2015-05-28 03:15 METAR KLKU 280715Z AUTO 21004KT 10SM CLR 22/18 A3014 RMK AO2 =
2015-05-28 02:55 METAR KLKU 280655Z AUTO 21003KT 10SM CLR 22/18 A3015 RMK AO2 =
2015-05-28 02:35 METAR KLKU 280635Z AUTO 22003KT 10SM CLR 22/19 A3015 RMK AO2 =
2015-05-28 02:15 METAR KLKU 280615Z AUTO 22004KT 10SM CLR 22/19 A3015 RMK AO2 =
2015-05-28 01:35 METAR KLKU 280535Z AUTO 20003KT 10SM CLR 23/19 A3016 RMK AO2 =
2015-05-28 01:15 METAR KLKU 280515Z AUTO 20004KT 10SM CLR 23/19 A3016 RMK AO2 =
2015-05-28 00:55 METAR KLKU 280455Z AUTO 22004KT 10SM CLR 23/19 A3016 RMK AO2 =
2015-05-28 00:35 METAR KLKU 280435Z AUTO 18003KT 10SM CLR 23/19 A3016 RMK AO2 =
2015-05-28 00:15 METAR KLKU 280415Z AUTO 20004KT 10SM CLR 23/19 A3016 RMK AO2 =
2015-05-27 23:55 METAR KLKU 280355Z AUTO 18003KT 10SM CLR 23/19 A3016 RMK AO2 =
2015-05-27 23:35 METAR KLKU 280335Z AUTO 17003KT 10SM CLR 23/19 A3016 RMK AO2 =
2015-05-27 22:55 METAR KLKU 280255Z AUTO 18003KT 10SM CLR 24/19 A3016 RMK AO2 =
2015-05-27 22:35 METAR KLKU 280235Z AUTO 00000KT 10SM CLR 23/19 A3016 RMK AO2 =
2015-05-27 22:15 METAR KLKU 280215Z AUTO 00000KT 10SM CLR 24/19 A3016 RMK AO2 =
2015-05-27 21:55 METAR KLKU 280155Z AUTO 00000KT 10SM CLR 23/19 A3015 RMK AO2 =
2015-05-27 21:35 METAR KLKU 280135Z AUTO 00000KT 10SM CLR 24/19 A3014 RMK AO2 =
2015-05-27 21:15 METAR KLKU 280115Z AUTO 19003KT 10SM CLR 24/18 A3013 RMK AO2 =
2015-05-27 20:55 METAR KLKU 280055Z AUTO 00000KT 10SM CLR 25/18 A3013 RMK AO2 =
2015-05-27 20:35 METAR KLKU 280035Z AUTO 00000KT 10SM CLR 26/18 A3012 RMK AO2 =
2015-05-27 20:15 METAR KLKU 280015Z AUTO 19003KT 10SM CLR 27/19 A3012 RMK AO2 =
2015-05-27 19:55 METAR KLKU 272355Z AUTO 00000KT 10SM CLR 26/19 A3012 RMK AO2 =
2015-05-27 19:35 METAR KLKU 272335Z AUTO 00000KT 10SM CLR 27/19 A3013 RMK AO2 =
2015-05-27 19:15 METAR KLKU 272315Z AUTO 00000KT 10SM CLR 28/19 A3012 RMK AO2 =
2015-05-27 18:55 METAR KLKU 272255Z AUTO 23004KT 10SM CLR 29/18 A3012 RMK AO2 =
2015-05-27 18:35 METAR KLKU 272235Z AUTO 21005KT 10SM CLR 30/19 A3012 RMK AO2 =
2015-05-27 18:15 METAR KLKU 272215Z AUTO 21005KT 10SM CLR 31/19 A3012 RMK AO2 =
2015-05-27 17:55 METAR KLKU 272155Z AUTO 20007KT 160V220 10SM CLR 31/19 A3012 RMK AO2 =
2015-05-27 17:35 METAR KLKU 272135Z AUTO 22007G14KT 170V230 10SM SCT100 31/19 A3012 RMK AO2 =
2015-05-27 17:15 METAR KLKU 272115Z AUTO 21004KT 10SM SCT100 31/19 A3012 RMK AO2 =
2015-05-27 16:55 METAR KLKU 272055Z AUTO 22007KT 170V240 10SM SCT080 30/19 A3013 RMK AO2 =
2015-05-27 16:35 METAR KLKU 272035Z AUTO 21005KT 10SM SCT050 BKN080 BKN090 29/19 A3013 RMK AO2 =
2015-05-27 16:15 METAR KLKU 272015Z AUTO 21006KT 10SM SCT044 SCT050 31/19 A3013 RMK AO2 =
2015-05-27 15:55 METAR KLKU 271955Z AUTO 19004KT 10SM BKN046 31/19 A3013 RMK AO2 =

Support USWX by starting your Amazon purchase here.